Time;durP1;ratioP1;P1;durP2;ratioP2;P2;SDS_P1;SDS_P2;PMS_P1;PMS_P2;Temp;Humidity;BMP_temperature;BMP_pressure;BME280_temperature;BME280_humidity;BME280_pressure;Samples;Min_cycle;Max_cycle;Signal;HPM_P1;HPM_P2
2021/04/15 00:01:39;;;;;;;4.10;3.70;;;5.40;91.10;;;;;;5018764;28;20188;-70
2021/04/15 00:04:06;;;;;;;3.33;2.70;;;5.40;91.10;;;;;;5031818;28;20298;-70
2021/04/15 00:06:33;;;;;;;4.53;3.00;;;5.40;91.00;;;;;;5035280;28;20446;-69
2021/04/15 00:09:03;;;;;;;4.50;2.87;;;5.50;91.10;;;;;;5048932;28;20981;-71
2021/04/15 00:11:31;;;;;;;2.47;2.27;;;5.40;91.30;;;;;;5046874;28;20461;-70
2021/04/15 00:13:59;;;;;;;3.93;2.47;;;5.40;91.40;;;;;;5051207;28;20561;-68
2021/04/15 00:16:27;;;;;;;3.87;2.60;;;5.40;91.50;;;;;;5057862;28;20483;-70
2021/04/15 00:18:54;;;;;;;3.07;2.63;;;5.40;91.70;;;;;;5018776;28;20497;-70
2021/04/15 00:21:20;;;;;;;5.00;2.80;;;5.30;91.60;;;;;;5034784;28;20461;-70
2021/04/15 00:23:46;;;;;;;3.20;2.90;;;5.30;91.70;;;;;;5034785;28;20466;-69
2021/04/15 00:26:14;;;;;;;3.40;3.10;;;5.30;91.60;;;;;;5035667;28;20886;-70
2021/04/15 00:28:40;;;;;;;3.70;2.67;;;5.30;91.50;;;;;;5052610;28;20477;-71
2021/04/15 00:31:07;;;;;;;3.20;2.60;;;5.30;91.40;;;;;;5045402;28;20477;-70
2021/04/15 00:33:33;;;;;;;2.60;2.40;;;5.20;91.40;;;;;;5028962;28;20565;-71
2021/04/15 00:35:59;;;;;;;2.70;2.47;;;5.20;91.40;;;;;;5022317;28;20522;-70
2021/04/15 00:38:26;;;;;;;3.47;2.60;;;5.30;91.40;;;;;;5050886;28;20470;-70
2021/04/15 00:40:53;;;;;;;2.87;2.63;;;5.30;91.50;;;;;;5048170;28;20477;-69
2021/04/15 00:43:22;;;;;;;3.33;3.00;;;5.30;91.40;;;;;;5051796;28;20450;-71
2021/04/15 00:45:49;;;;;;;4.47;2.93;;;5.20;91.50;;;;;;5019400;28;20478;-71
2021/04/15 00:48:23;;;;;;;3.53;2.70;;;5.30;91.50;;;;;;5034876;28;20486;-70
2021/04/15 00:50:59;;;;;;;3.67;2.70;;;5.30;91.60;;;;;;5053204;28;20414;-69
2021/04/15 00:53:32;;;;;;;4.57;3.20;;;5.30;91.20;;;;;;5035388;28;20450;-70
2021/04/15 00:55:58;;;;;;;2.77;2.47;;;5.30;91.20;;;;;;5051807;28;20407;-69
2021/04/15 00:58:26;;;;;;;3.90;3.20;;;5.30;91.20;;;;;;5034523;28;20478;-70
2021/04/15 01:00:52;;;;;;;4.00;3.07;;;5.30;91.20;;;;;;5052754;28;20469;-70
2021/04/15 01:03:18;;;;;;;4.93;3.40;;;5.30;91.20;;;;;;5051467;28;20454;-70
2021/04/15 01:05:46;;;;;;;3.50;3.20;;;5.20;91.00;;;;;;5051956;28;20445;-69
2021/04/15 01:08:12;;;;;;;3.43;3.13;;;5.10;91.10;;;;;;5051146;28;20354;-71
2021/04/15 01:11:04;;;;;;;3.07;2.60;;;5.10;91.10;;;;;;5051481;28;20431;-70
2021/04/15 01:13:46;;;;;;;3.83;3.40;;;5.10;91.10;;;;;;5051200;28;20909;-70
2021/04/15 01:16:35;;;;;;;3.20;2.80;;;5.10;91.10;;;;;;5034753;28;20913;-69
2021/04/15 01:19:34;;;;;;;3.67;3.00;;;5.10;91.00;;;;;;5050476;28;20474;-69
2021/04/15 01:22:14;;;;;;;3.50;2.93;;;5.10;91.00;;;;;;5050885;28;20913;-71
2021/04/15 01:24:53;;;;;;;3.90;3.07;;;5.10;91.00;;;;;;5051341;28;20445;-70
2021/04/15 01:27:40;;;;;;;3.20;2.70;;;5.10;91.00;;;;;;5031042;28;20550;-70
2021/04/15 01:30:15;;;;;;;5.53;3.20;;;5.10;91.10;;;;;;5034532;28;20434;-70
2021/04/15 01:33:08;;;;;;;3.13;2.57;;;5.10;91.00;;;;;;5025971;28;20455;-70
2021/04/15 01:35:44;;;;;;;2.63;2.40;;;5.10;91.00;;;;;;5034850;28;20815;-69
2021/04/15 01:38:13;;;;;;;2.57;2.37;;;5.10;91.00;;;;;;5050735;28;20985;-70
2021/04/15 01:40:45;;;;;;;4.60;2.93;;;5.10;91.00;;;;;;5050809;28;20438;-70
2021/04/15 01:43:20;;;;;;;3.27;2.97;;;5.00;91.40;;;;;;5018529;28;20478;-69
2021/04/15 01:45:52;;;;;;;3.53;2.70;;;5.00;91.00;;;;;;5051092;28;20434;-70
2021/04/15 01:48:26;;;;;;;3.37;2.90;;;5.00;91.00;;;;;;5033970;28;20918;-72
2021/04/15 01:51:01;;;;;;;4.30;2.80;;;5.00;91.00;;;;;;5034383;28;20440;-69
2021/04/15 01:53:31;;;;;;;4.37;3.50;;;4.90;91.00;;;;;;5050449;28;20450;-70
2021/04/15 01:56:21;;;;;;;6.80;3.40;;;4.90;91.00;;;;;;5034377;28;20430;-70
2021/04/15 01:59:00;;;;;;;3.90;3.20;;;4.90;91.00;;;;;;5033304;28;20482;-70
2021/04/15 02:01:31;;;;;;;4.73;3.00;;;4.90;91.00;;;;;;5034450;28;20518;-70
2021/04/15 02:04:02;;;;;;;3.30;2.80;;;4.90;91.00;;;;;;5034288;28;20904;-70
2021/04/15 02:06:31;;;;;;;7.43;3.47;;;4.90;91.00;;;;;;5034048;28;20407;-70
2021/04/15 02:09:00;;;;;;;3.97;3.07;;;4.80;90.90;;;;;;5032792;28;20462;-69
2021/04/15 02:11:51;;;;;;;5.30;3.10;;;4.80;90.90;;;;;;5050596;28;20435;-71
2021/04/15 02:14:27;;;;;;;3.20;2.87;;;4.80;91.00;;;;;;5054234;28;20541;-70
2021/04/15 02:16:54;;;;;;;3.07;2.77;;;4.80;90.90;;;;;;5053497;28;20429;-69
2021/04/15 02:19:35;;;;;;;3.13;2.60;;;4.70;90.90;;;;;;5036677;28;20488;-70
2021/04/15 02:22:28;;;;;;;5.40;3.47;;;4.70;90.90;;;;;;5053309;28;20424;-69
2021/04/15 02:25:02;;;;;;;3.30;2.97;;;4.60;91.00;;;;;;5053765;28;20441;-69
2021/04/15 02:27:36;;;;;;;3.90;2.90;;;4.60;91.00;;;;;;5050605;28;20454;-70
2021/04/15 02:30:27;;;;;;;2.73;2.10;;;4.60;91.00;;;;;;5049886;28;20469;-70
2021/04/15 02:33:06;;;;;;;4.63;3.50;;;4.60;90.90;;;;;;5024016;28;20458;-69
2021/04/15 02:35:41;;;;;;;3.97;2.90;;;4.60;90.90;;;;;;5033725;28;20443;-70
2021/04/15 02:38:08;;;;;;;3.43;3.00;;;4.60;90.90;;;;;;5049504;28;20473;-70
2021/04/15 02:40:41;;;;;;;3.63;2.40;;;4.60;90.90;;;;;;5049919;28;20433;-70
2021/04/15 02:43:17;;;;;;;3.27;2.40;;;4.60;90.70;;;;;;5049709;28;20457;-70
2021/04/15 02:45:48;;;;;;;4.93;2.70;;;4.60;90.80;;;;;;5033330;28;20451;-70
2021/04/15 02:48:23;;;;;;;3.37;2.67;;;4.60;90.80;;;;;;5049139;28;20561;-69
2021/04/15 02:50:55;;;;;;;3.87;3.13;;;4.60;90.70;;;;;;5049889;28;20426;-70
2021/04/15 02:53:26;;;;;;;2.30;2.10;;;4.60;90.60;;;;;;5050953;28;20517;-70
2021/04/15 02:56:05;;;;;;;5.57;3.20;;;4.60;90.60;;;;;;5016734;28;20458;-71
2021/04/15 02:58:38;;;;;;;3.30;2.97;;;4.60;90.70;;;;;;5048892;28;20561;-71
2021/04/15 03:01:09;;;;;;;3.67;2.90;;;4.60;90.70;;;;;;5050175;28;20964;-70
2021/04/15 03:03:36;;;;;;;6.57;3.73;;;4.50;90.80;;;;;;5034189;28;20457;-70
2021/04/15 03:06:09;;;;;;;4.57;3.03;;;4.50;90.80;;;;;;5039673;28;20458;-70
2021/04/15 03:08:38;;;;;;;3.27;2.70;;;4.50;90.80;;;;;;5055616;28;20465;-70
2021/04/15 03:11:22;;;;;;;2.67;2.47;;;4.50;90.70;;;;;;5055995;28;20422;-70
2021/04/15 03:13:53;;;;;;;2.90;2.70;;;4.50;90.70;;;;;;5057238;28;20454;-70
2021/04/15 03:16:24;;;;;;;3.30;3.00;;;4.40;90.80;;;;;;5056468;28;20508;-70
2021/04/15 03:19:03;;;;;;;3.80;3.30;;;4.40;90.70;;;;;;5055499;28;20929;-71
2021/04/15 03:22:10;;;;;;;5.20;3.33;;;4.40;90.70;;;;;;5039760;28;20422;-70
2021/04/15 03:24:48;;;;;;;3.53;3.00;;;4.40;90.70;;;;;;5017274;28;20472;-69
2021/04/15 03:27:39;;;;;;;3.07;2.57;;;4.40;90.50;;;;;;5055536;28;20529;-70
2021/04/15 03:30:05;;;;;;;4.63;3.73;;;4.40;90.50;;;;;;5057031;28;20422;-68
2021/04/15 03:32:48;;;;;;;3.03;2.50;;;4.30;90.40;;;;;;5055946;28;20480;-71
2021/04/15 03:35:20;;;;;;;4.37;3.77;;;4.20;90.90;;;;;;5023031;28;20219;-70
2021/04/15 03:37:51;;;;;;;5.03;3.40;;;4.10;90.90;;;;;;5055555;28;21024;-71
2021/04/15 03:40:22;;;;;;;5.50;3.83;;;4.20;90.90;;;;;;5039207;28;20431;-70
2021/04/15 03:42:53;;;;;;;5.30;3.60;;;4.20;90.80;;;;;;5055747;28;20450;-69
2021/04/15 03:45:28;;;;;;;4.87;3.30;;;4.20;90.80;;;;;;5055935;28;20434;-70
2021/04/15 03:47:59;;;;;;;5.27;3.20;;;4.20;91.20;;;;;;5055372;28;20452;-69
2021/04/15 03:50:32;;;;;;;11.40;4.20;;;4.20;90.90;;;;;;5055680;28;20403;-69
2021/04/15 03:53:06;;;;;;;4.67;4.27;;;4.20;90.90;;;;;;5035501;28;20478;-71
2021/04/15 03:55:40;;;;;;;5.47;4.07;;;4.20;90.90;;;;;;5036091;28;21016;-71
2021/04/15 03:58:16;;;;;;;4.90;4.20;;;4.20;90.80;;;;;;5035924;28;20576;-71
2021/04/15 04:00:48;;;;;;;9.40;3.97;;;4.20;90.80;;;;;;5035765;28;20422;-70
2021/04/15 04:03:19;;;;;;;6.67;4.10;;;4.20;90.70;;;;;;5035239;28;20443;-70
2021/04/15 04:05:54;;;;;;;4.87;3.57;;;4.10;90.60;;;;;;4987191;28;20450;-71
2021/04/15 04:08:58;;;;;;;5.07;3.73;;;4.10;90.70;;;;;;5035276;28;20538;-71
2021/04/15 04:11:29;;;;;;;6.13;3.67;;;4.10;90.60;;;;;;5029890;28;20427;-70
2021/04/15 04:14:11;;;;;;;6.23;4.20;;;4.10;90.50;;;;;;5038801;28;20453;-69
2021/04/15 04:16:43;;;;;;;7.13;4.77;;;4.10;90.60;;;;;;5052001;28;20445;-70
2021/04/15 04:19:44;;;;;;;6.27;4.33;;;4.10;90.60;;;;;;5034524;28;20470;-69
2021/04/15 04:22:19;;;;;;;6.97;4.50;;;4.10;90.70;;;;;;5052086;28;20399;-70
2021/04/15 04:24:51;;;;;;;6.93;4.33;;;4.10;90.70;;;;;;5052075;28;20981;-70
2021/04/15 04:27:29;;;;;;;5.63;5.00;;;4.10;90.70;;;;;;5032552;28;20440;-69
2021/04/15 04:30:13;;;;;;;7.47;4.73;;;4.10;90.80;;;;;;5031970;28;20427;-70
2021/04/15 04:32:41;;;;;;;14.87;7.90;;;4.10;90.70;;;;;;5015644;28;20447;-70
2021/04/15 04:35:12;;;;;;;12.80;7.50;;;4.10;90.70;;;;;;5015700;28;20504;-70
2021/04/15 04:37:45;;;;;;;13.47;6.70;;;4.00;90.60;;;;;;5031581;28;20550;-70
2021/04/15 04:40:18;;;;;;;10.83;6.90;;;4.00;90.70;;;;;;5031775;28;20463;-70
2021/04/15 04:42:50;;;;;;;11.30;6.90;;;4.00;90.70;;;;;;5045834;28;20537;-70
2021/04/15 04:45:17;;;;;;;10.47;6.93;;;4.00;90.70;;;;;;5035301;28;20438;-70
2021/04/15 04:47:46;;;;;;;13.77;6.83;;;4.00;90.70;;;;;;5034880;28;20446;-70
2021/04/15 04:50:24;;;;;;;11.00;6.53;;;4.00;90.80;;;;;;5051645;28;20410;-69
2021/04/15 04:53:05;;;;;;;10.50;6.77;;;4.00;90.90;;;;;;5052501;28;20486;-70
2021/04/15 04:56:00;;;;;;;12.73;6.63;;;4.00;90.90;;;;;;5018763;28;20853;-70
2021/04/15 04:58:26;;;;;;;12.40;7.70;;;4.00;90.90;;;;;;5049685;28;20506;-70
2021/04/15 05:00:55;;;;;;;13.57;6.70;;;4.00;90.90;;;;;;5034893;28;20447;-69
2021/04/15 05:03:24;;;;;;;10.53;7.17;;;4.00;90.90;;;;;;5034444;28;20299;-69
2021/04/15 05:06:09;;;;;;;21.87;9.10;;;4.00;91.00;;;;;;5034517;28;20451;-70
2021/04/15 05:09:12;;;;;;;15.90;8.23;;;3.90;90.90;;;;;;5059315;28;20508;-70
2021/04/15 05:11:40;;;;;;;14.17;8.40;;;3.90;90.80;;;;;;5068115;28;20436;-70
2021/04/15 05:14:07;;;;;;;15.37;7.57;;;3.90;90.90;;;;;;5034125;28;20504;-70
2021/04/15 05:16:42;;;;;;;12.17;7.57;;;4.00;91.10;;;;;;5034992;28;20434;-69
2021/04/15 05:19:08;;;;;;;18.40;7.83;;;3.90;91.00;;;;;;5033224;28;20474;-70
2021/04/15 05:21:35;;;;;;;19.83;9.53;;;3.90;91.00;;;;;;5051363;28;20430;-69
2021/04/15 05:24:25;;;;;;;12.10;8.93;;;3.90;91.10;;;;;;5034731;28;20534;-69
2021/04/15 05:26:52;;;;;;;10.07;5.30;;;3.90;91.00;;;;;;5020785;28;20424;-69
2021/04/15 05:29:22;;;;;;;8.07;5.17;;;3.90;91.10;;;;;;5030460;28;20482;-70
2021/04/15 05:31:52;;;;;;;13.23;5.80;;;3.90;91.10;;;;;;5031343;28;20514;-70
2021/04/15 05:34:26;;;;;;;5.63;4.40;;;3.90;91.10;;;;;;5047248;28;20467;-69
2021/04/15 05:36:56;;;;;;;8.80;6.47;;;3.90;91.30;;;;;;5031954;28;20412;-71
2021/04/15 05:39:22;;;;;;;9.03;6.90;;;3.90;91.50;;;;;;5030811;28;20459;-69
2021/04/15 05:41:58;;;;;;;12.70;8.23;;;4.00;91.50;;;;;;5034285;28;20415;-70
2021/04/15 05:44:39;;;;;;;8.70;6.80;;;4.00;91.50;;;;;;5051923;28;20450;-71
2021/04/15 05:47:12;;;;;;;11.27;6.90;;;4.00;91.40;;;;;;5050408;28;20936;-69
2021/04/15 05:49:52;;;;;;;13.40;6.20;;;4.00;91.70;;;;;;5050596;28;20406;-70
2021/04/15 05:52:30;;;;;;;7.50;5.10;;;3.90;91.70;;;;;;5034368;28;20464;-70
2021/04/15 05:55:06;;;;;;;6.10;4.10;;;4.00;91.90;;;;;;5050981;28;20438;-71
2021/04/15 05:57:37;;;;;;;6.00;4.00;;;4.00;92.00;;;;;;5033451;28;20458;-70
2021/04/15 06:00:34;;;;;;;5.77;3.97;;;4.00;92.30;;;;;;5033884;28;20572;-71
2021/04/15 06:03:33;;;;;;;6.00;4.40;;;4.00;92.30;;;;;;5033583;28;20461;-70
2021/04/15 06:06:11;;;;;;;4.90;3.77;;;4.00;93.50;;;;;;5050677;28;20581;-70
2021/04/15 06:08:39;;;;;;;5.80;3.67;;;4.10;93.80;;;;;;5034185;28;20458;-70
2021/04/15 06:11:26;;;;;;;3.60;3.13;;;4.00;94.20;;;;;;5033977;28;20545;-69
2021/04/15 06:14:15;;;;;;;2.80;2.30;;;4.10;94.20;;;;;;5049986;28;20457;-70
2021/04/15 06:16:46;;;;;;;5.00;3.23;;;4.10;94.40;;;;;;5051641;28;20407;-70
2021/04/15 06:19:22;;;;;;;2.80;2.60;;;4.10;94.80;;;;;;5032681;28;20488;-69
2021/04/15 06:22:12;;;;;;;4.53;3.60;;;4.10;95.20;;;;;;5017614;28;20874;-70
2021/04/15 06:24:40;;;;;;;6.37;3.93;;;4.00;95.60;;;;;;5033638;28;20457;-69
2021/04/15 06:27:08;;;;;;;5.80;3.70;;;4.10;95.70;;;;;;5049531;28;20423;-70
2021/04/15 06:29:49;;;;;;;4.00;3.27;;;4.10;95.90;;;;;;5033105;28;20802;-70
2021/04/15 06:32:19;;;;;;;5.20;3.37;;;4.10;96.10;;;;;;5049471;28;20866;-69
2021/04/15 06:34:46;;;;;;;4.13;2.80;;;4.20;96.00;;;;;;5050247;28;20470;-69
2021/04/15 06:37:26;;;;;;;5.30;3.80;;;4.20;96.10;;;;;;5016784;28;20489;-70
2021/04/15 06:40:06;;;;;;;4.00;2.57;;;4.30;96.20;;;;;;5048857;28;20474;-70
2021/04/15 06:42:51;;;;;;;5.17;2.57;;;4.30;96.00;;;;;;5032857;28;20477;-69
2021/04/15 06:45:28;;;;;;;7.57;3.60;;;4.30;96.50;;;;;;5033347;28;20438;-70
2021/04/15 06:48:13;;;;;;;3.57;2.90;;;4.30;96.40;;;;;;5032229;28;20515;-70
2021/04/15 06:50:47;;;;;;;4.77;3.07;;;4.40;96.80;;;;;;5033180;28;20422;-70
2021/04/15 06:53:39;;;;;;;2.80;2.50;;;4.40;96.90;;;;;;5049471;28;20491;-70
2021/04/15 06:56:30;;;;;;;5.60;3.80;;;4.50;96.70;;;;;;5049697;28;20403;-70
2021/04/15 06:59:33;;;;;;;6.10;3.30;;;4.50;96.80;;;;;;5032470;28;20479;-71
2021/04/15 07:02:34;;;;;;;4.13;2.87;;;4.60;97.10;;;;;;5049420;28;20418;-68
2021/04/15 07:05:06;;;;;;;6.57;4.30;;;4.70;97.30;;;;;;5028549;28;20462;-69
2021/04/15 07:07:37;;;;;;;2.33;2.13;;;4.70;97.40;;;;;;5042408;28;20550;-70
2021/04/15 07:10:15;;;;;;;2.90;2.23;;;4.70;97.50;;;;;;5033315;28;20529;-71
2021/04/15 07:13:12;;;;;;;4.37;3.30;;;4.70;98.10;;;;;;5048895;28;20454;-71
2021/04/15 07:16:10;;;;;;;4.77;3.10;;;4.70;98.00;;;;;;5040835;28;20438;-71
2021/04/15 07:19:03;;;;;;;4.27;2.77;;;4.70;98.20;;;;;;5034994;28;20509;-70
2021/04/15 07:21:49;;;;;;;3.13;2.83;;;4.80;98.20;;;;;;5032884;28;20429;-70
2021/04/15 07:24:15;;;;;;;6.20;4.17;;;5.00;98.40;;;;;;5048111;28;20459;-70
2021/04/15 07:26:46;;;;;;;4.63;3.53;;;5.10;98.30;;;;;;5036728;28;20467;-70
2021/04/15 07:29:50;;;;;;;6.10;3.87;;;5.10;98.50;;;;;;5044796;28;20219;-70
2021/04/15 07:32:40;;;;;;;4.30;3.47;;;5.20;98.70;;;;;;5028768;28;20526;-71
2021/04/15 07:35:27;;;;;;;6.73;3.83;;;5.30;98.70;;;;;;5029271;28;20470;-69
2021/04/15 07:38:11;;;;;;;5.80;4.03;;;5.30;98.50;;;;;;5028860;28;20542;-71
2021/04/15 07:40:54;;;;;;;5.07;3.60;;;5.30;98.30;;;;;;5029450;28;20984;-68
2021/04/15 07:44:01;;;;;;;7.20;3.63;;;5.30;98.40;;;;;;5040684;28;20874;-70
2021/04/15 07:47:09;;;;;;;3.67;3.33;;;5.40;98.50;;;;;;4982492;28;20452;-71
2021/04/15 07:49:52;;;;;;;11.00;3.20;;;5.50;98.80;;;;;;5028991;28;20481;-70
2021/04/15 07:52:46;;;;;;;5.10;2.87;;;5.50;98.50;;;;;;5046238;28;21000;-70
2021/04/15 07:55:26;;;;;;;3.73;3.27;;;5.70;99.00;;;;;;5047714;28;20538;-68
2021/04/15 07:58:23;;;;;;;7.80;3.37;;;5.80;99.10;;;;;;5052487;28;20462;-70
2021/04/15 08:01:04;;;;;;;5.00;3.43;;;5.90;99.00;;;;;;5053025;28;20898;-71
2021/04/15 08:03:39;;;;;;;4.40;3.70;;;6.10;99.20;;;;;;5053541;28;20457;-70
2021/04/15 08:06:13;;;;;;;5.07;3.60;;;6.20;99.40;;;;;;5052499;28;20432;-70
2021/04/15 08:09:15;;;;;;;5.43;3.80;;;6.30;99.10;;;;;;5051747;28;20477;-70
2021/04/15 08:12:14;;;;;;;6.60;3.90;;;6.40;99.10;;;;;;5036003;28;20817;-70
2021/04/15 08:15:04;;;;;;;4.60;2.80;;;6.50;99.20;;;;;;5036033;28;20482;-70
2021/04/15 08:17:54;;;;;;;3.57;3.23;;;6.60;99.10;;;;;;5051971;28;20480;-70
2021/04/15 08:20:43;;;;;;;2.57;2.27;;;6.80;99.20;;;;;;5052161;28;20458;-70
2021/04/15 08:23:27;;;;;;;3.57;2.60;;;6.90;99.00;;;;;;5051767;28;20537;-69
2021/04/15 08:26:24;;;;;;;4.77;3.07;;;7.10;98.80;;;;;;5051948;28;20969;-70
2021/04/15 08:29:31;;;;;;;5.67;3.80;;;7.20;98.50;;;;;;5051328;28;20458;-71
2021/04/15 08:32:18;;;;;;;5.80;3.73;;;7.30;98.20;;;;;;5014877;28;20410;-70
2021/04/15 08:35:03;;;;;;;6.63;4.03;;;7.30;97.50;;;;;;5053276;28;20458;-69
2021/04/15 08:38:04;;;;;;;3.33;2.70;;;7.40;97.70;;;;;;5051112;28;20451;-70
2021/04/15 08:41:08;;;;;;;4.33;2.77;;;7.60;97.40;;;;;;5019413;28;20431;-70
2021/04/15 08:43:40;;;;;;;4.57;3.50;;;7.60;96.70;;;;;;5034204;28;20529;-69
2021/04/15 08:46:19;;;;;;;5.30;3.00;;;7.50;96.30;;;;;;5050912;28;20429;-69
2021/04/15 08:49:14;;;;;;;3.13;2.80;;;7.50;97.10;;;;;;5050262;28;20489;-70
2021/04/15 08:52:06;;;;;;;4.30;3.30;;;7.50;96.60;;;;;;5052445;28;20827;-68
2021/04/15 08:54:50;;;;;;;10.20;2.80;;;7.60;97.00;;;;;;5051386;28;20467;-69
2021/04/15 08:57:39;;;;;;;6.90;3.90;;;7.70;97.00;;;;;;5051255;28;21034;-70
2021/04/15 09:00:16;;;;;;;5.73;3.57;;;7.60;95.70;;;;;;5034799;28;20509;-69
2021/04/15 09:02:51;;;;;;;4.27;3.87;;;7.50;95.70;;;;;;5034009;28;20458;-70
2021/04/15 09:05:17;;;;;;;3.50;3.20;;;7.50;95.10;;;;;;5051414;28;20517;-69
2021/04/15 09:08:13;;;;;;;4.27;2.83;;;7.60;95.70;;;;;;5050721;28;20546;-69
2021/04/15 09:10:44;;;;;;;8.67;3.40;;;7.70;95.50;;;;;;5051011;28;20187;-69
2021/04/15 09:13:13;;;;;;;5.97;4.20;;;7.70;95.50;;;;;;5034018;28;20496;-70
2021/04/15 09:15:50;;;;;;;3.67;2.70;;;7.80;95.10;;;;;;5052509;28;20438;-71
2021/04/15 09:18:38;;;;;;;5.40;3.43;;;7.80;95.00;;;;;;5033723;28;20516;-69
2021/04/15 09:21:22;;;;;;;4.50;3.63;;;7.70;95.00;;;;;;5051629;28;20422;-70
2021/04/15 09:24:12;;;;;;;3.53;3.17;;;7.90;95.20;;;;;;5050840;28;20454;-69
2021/04/15 09:27:02;;;;;;;4.20;3.53;;;8.00;95.30;;;;;;5051294;28;20713;-71
2021/04/15 09:29:38;;;;;;;2.60;2.30;;;7.90;94.10;;;;;;5033936;28;20434;-68
2021/04/15 09:32:15;;;;;;;3.90;3.03;;;8.00;94.50;;;;;;5034286;28;20423;-70
2021/04/15 09:35:07;;;;;;;5.50;4.03;;;8.10;94.50;;;;;;5052078;28;20905;-69
2021/04/15 09:37:55;;;;;;;4.00;2.73;;;8.10;94.70;;;;;;5049852;28;20454;-69
2021/04/15 09:40:27;;;;;;;7.40;3.00;;;8.20;94.40;;;;;;5030182;28;20459;-70
2021/04/15 09:43:02;;;;;;;3.83;2.47;;;8.30;94.40;;;;;;5026614;28;20447;-70
2021/04/15 09:46:08;;;;;;;3.13;2.43;;;8.30;94.50;;;;;;5049584;28;20456;-70
2021/04/15 09:48:50;;;;;;;2.47;1.90;;;8.30;94.20;;;;;;5040099;28;20458;-70
2021/04/15 09:51:52;;;;;;;2.67;2.43;;;8.40;94.60;;;;;;5032285;28;20546;-70
2021/04/15 09:54:45;;;;;;;5.03;3.23;;;8.50;94.30;;;;;;5030189;28;20500;-69
2021/04/15 09:57:36;;;;;;;3.50;2.57;;;8.50;94.60;;;;;;5056852;28;20495;-70
2021/04/15 10:00:12;;;;;;;4.30;2.30;;;8.60;94.30;;;;;;5030171;28;20450;-69
2021/04/15 10:03:16;;;;;;;3.60;1.83;;;8.50;93.60;;;;;;5054750;28;20457;-70
2021/04/15 10:05:53;;;;;;;3.00;2.63;;;8.20;94.00;;;;;;5048657;28;20442;-70
2021/04/15 10:08:27;;;;;;;3.00;1.90;;;8.10;94.20;;;;;;5024174;28;20454;-69
2021/04/15 10:11:20;;;;;;;3.60;2.67;;;8.10;94.50;;;;;;5048967;28;20455;-68
2021/04/15 10:14:12;;;;;;;3.90;3.10;;;8.00;94.60;;;;;;5047347;28;20446;-69
2021/04/15 10:17:01;;;;;;;1.70;1.60;;;8.00;94.90;;;;;;5033210;28;20407;-69
2021/04/15 10:19:42;;;;;;;2.80;2.53;;;8.10;95.10;;;;;;5042199;28;20469;-70
2021/04/15 10:22:15;;;;;;;3.30;2.83;;;8.30;95.50;;;;;;5047691;28;20894;-70
2021/04/15 10:24:49;;;;;;;2.80;2.60;;;8.50;95.30;;;;;;5048544;28;20953;-68
2021/04/15 10:27:52;;;;;;;1.80;1.70;;;8.60;94.50;;;;;;5028797;28;20447;-69
2021/04/15 10:30:56;;;;;;;4.23;2.60;;;8.70;93.80;;;;;;5037636;28;20440;-69
2021/04/15 10:33:37;;;;;;;4.20;2.87;;;8.80;93.90;;;;;;5015600;28;20528;-69
2021/04/15 10:36:31;;;;;;;3.07;2.50;;;8.80;93.40;;;;;;5036276;28;20808;-69
2021/04/15 10:39:30;;;;;;;4.80;3.20;;;8.90;93.40;;;;;;5028975;28;20512;-70
2021/04/15 10:42:23;;;;;;;2.70;2.30;;;8.90;92.80;;;;;;5039842;28;20447;-69
2021/04/15 10:44:57;;;;;;;2.30;2.00;;;9.10;93.80;;;;;;5045168;28;20442;-69
2021/04/15 10:47:38;;;;;;;1.87;1.67;;;9.40;93.60;;;;;;5041582;28;20537;-70
2021/04/15 10:50:56;;;;;;;2.97;1.90;;;9.60;93.60;;;;;;5043753;28;20472;-70
2021/04/15 10:53:54;;;;;;;2.40;2.20;;;9.80;93.30;;;;;;4986995;28;20529;-69
2021/04/15 10:56:23;;;;;;;3.27;2.47;;;9.90;93.20;;;;;;5024781;28;20486;-69
2021/04/15 10:59:05;;;;;;;2.93;2.47;;;9.80;92.60;;;;;;5056996;28;20962;-69
2021/04/15 11:01:36;;;;;;;2.90;2.27;;;9.70;91.10;;;;;;5046118;28;20415;-69
2021/04/15 11:04:24;;;;;;;2.83;2.27;;;9.70;91.00;;;;;;5028737;28;20462;-70
2021/04/15 11:06:54;;;;;;;2.30;2.10;;;9.90;91.20;;;;;;5046592;28;20441;-69
2021/04/15 11:09:42;;;;;;;2.83;2.60;;;9.90;90.30;;;;;;5045219;28;20482;-69
2021/04/15 11:12:14;;;;;;;4.23;2.67;;;9.80;90.10;;;;;;5028948;28;20918;-69
2021/04/15 11:14:43;;;;;;;4.20;2.20;;;9.80;90.60;;;;;;5045922;28;20465;-70
2021/04/15 11:17:33;;;;;;;3.67;2.70;;;9.80;90.10;;;;;;5049242;28;20861;-70
2021/04/15 11:20:29;;;;;;;5.23;3.10;;;9.90;90.50;;;;;;5049022;28;20557;-70
2021/04/15 11:23:00;;;;;;;4.13;2.67;;;9.90;89.40;;;;;;5040252;28;20446;-70
2021/04/15 11:25:49;;;;;;;2.70;1.90;;;10.10;89.90;;;;;;5049719;28;20447;-70
2021/04/15 11:28:18;;;;;;;3.83;2.10;;;10.20;86.90;;;;;;5051520;28;20478;-70
2021/04/15 11:31:11;;;;;;;4.00;2.90;;;10.00;85.00;;;;;;5031119;28;20426;-69
2021/04/15 11:33:49;;;;;;;3.20;2.50;;;9.80;85.40;;;;;;5050161;28;20454;-69
2021/04/15 11:36:15;;;;;;;4.93;3.03;;;9.60;84.60;;;;;;5020716;28;20503;-70
2021/04/15 11:38:43;;;;;;;5.70;2.87;;;9.50;85.10;;;;;;5053137;28;20512;-70
2021/04/15 11:41:15;;;;;;;2.27;2.07;;;9.60;87.10;;;;;;5052220;28;20187;-69
2021/04/15 11:43:42;;;;;;;2.70;2.23;;;9.80;87.30;;;;;;5030898;28;20469;-70
2021/04/15 11:46:13;;;;;;;3.27;1.73;;;9.70;83.10;;;;;;5034875;28;20419;-70
2021/04/15 11:48:39;;;;;;;2.40;1.30;;;9.80;82.00;;;;;;5049955;28;20458;-69
2021/04/15 11:51:18;;;;;;;1.30;1.20;;;9.70;82.70;;;;;;5053750;28;20471;-70
2021/04/15 11:53:57;;;;;;;2.40;2.20;;;9.60;82.60;;;;;;5034679;28;20457;-69
2021/04/15 11:56:38;;;;;;;2.00;1.33;;;9.60;83.20;;;;;;5034794;28;20936;-70
2021/04/15 11:59:23;;;;;;;2.30;2.10;;;9.50;82.50;;;;;;5042567;28;20482;-70
2021/04/15 12:01:53;;;;;;;2.20;1.80;;;9.50;82.70;;;;;;5047534;28;20434;-69
2021/04/15 12:04:28;;;;;;;3.17;2.73;;;9.50;83.40;;;;;;5052659;28;20525;-69
2021/04/15 12:07:12;;;;;;;1.60;1.50;;;9.60;82.50;;;;;;5035512;28;20413;-69
2021/04/15 12:09:38;;;;;;;1.53;1.43;;;9.70;83.80;;;;;;5052007;28;20426;-70
2021/04/15 12:12:35;;;;;;;1.40;1.30;;;9.80;85.20;;;;;;5014888;28;20420;-70
2021/04/15 12:15:02;;;;;;;3.13;1.77;;;9.90;82.90;;;;;;5044642;28;20481;-70
2021/04/15 12:17:32;;;;;;;3.67;2.17;;;9.80;81.50;;;;;;5038471;28;20530;-70
2021/04/15 12:20:12;;;;;;;3.13;1.80;;;9.90;82.90;;;;;;5073131;28;20481;-69
2021/04/15 12:23:00;;;;;;;7.83;3.47;;;9.90;82.60;;;;;;5071588;28;20441;-69
2021/04/15 12:25:33;;;;;;;4.80;2.60;;;9.90;80.40;;;;;;5050005;28;20834;-69
2021/04/15 12:28:30;;;;;;;4.00;2.03;;;9.90;80.90;;;;;;5058749;28;20447;-70
2021/04/15 12:31:09;;;;;;;7.10;2.00;;;10.10;80.50;;;;;;5044535;28;20441;-70
2021/04/15 12:33:48;;;;;;;1.80;1.40;;;10.00;77.00;;;;;;5031540;28;20466;-70
2021/04/15 12:36:29;;;;;;;4.07;2.73;;;10.00;77.60;;;;;;5030165;28;20414;-69
2021/04/15 12:39:04;;;;;;;2.70;1.80;;;10.10;78.50;;;;;;5045813;28;20474;-69
2021/04/15 12:41:31;;;;;;;2.40;1.67;;;10.20;79.80;;;;;;5060881;28;20438;-70
2021/04/15 12:44:09;;;;;;;1.40;1.30;;;10.50;78.80;;;;;;5012876;28;20636;-69
2021/04/15 12:46:35;;;;;;;2.30;1.50;;;10.60;74.60;;;;;;5027243;28;20514;-68
2021/04/15 12:49:05;;;;;;;1.93;1.47;;;10.40;71.90;;;;;;5010359;28;21015;-69
2021/04/15 12:51:41;;;;;;;1.30;1.20;;;10.20;71.40;;;;;;5037074;28;20427;-70
2021/04/15 12:54:13;;;;;;;2.20;2.00;;;10.30;72.50;;;;;;5047648;28;20471;-69
2021/04/15 12:56:48;;;;;;;3.47;1.60;;;10.30;72.50;;;;;;5046614;28;20469;-69
2021/04/15 12:59:39;;;;;;;2.20;2.00;;;10.30;74.10;;;;;;5041022;28;20513;-70
2021/04/15 13:02:22;;;;;;;1.87;1.67;;;10.20;73.70;;;;;;5033206;28;20423;-69
2021/04/15 13:04:53;;;;;;;2.00;1.90;;;10.20;74.30;;;;;;5048616;28;20538;-69
2021/04/15 13:07:21;;;;;;;1.63;1.53;;;10.30;75.60;;;;;;5047854;28;20480;-69
2021/04/15 13:09:49;;;;;;;1.40;1.30;;;10.30;75.00;;;;;;5049005;28;20430;-68
2021/04/15 13:12:35;;;;;;;2.37;1.23;;;10.30;75.30;;;;;;5049435;28;20442;-68
2021/04/15 13:15:08;;;;;;;2.17;1.90;;;10.30;75.50;;;;;;5049420;28;20508;-69
2021/04/15 13:17:34;;;;;;;3.33;2.30;;;10.40;76.40;;;;;;5042468;28;20454;-69
2021/04/15 13:20:04;;;;;;;2.57;1.80;;;10.50;75.70;;;;;;5031648;28;20556;-70
2021/04/15 13:22:37;;;;;;;1.67;1.50;;;10.40;75.60;;;;;;5016710;28;20215;-70
2021/04/15 13:25:02;;;;;;;1.63;1.53;;;10.50;75.60;;;;;;5028855;28;20954;-68
2021/04/15 13:27:34;;;;;;;1.67;1.40;;;10.50;74.20;;;;;;5032924;28;20571;-70
2021/04/15 13:30:22;;;;;;;2.33;2.13;;;10.60;72.20;;;;;;5041955;28;20188;-69
2021/04/15 13:32:59;;;;;;;1.63;1.53;;;10.60;72.50;;;;;;5048279;28;21008;-69
2021/04/15 13:35:59;;;;;;;1.33;1.23;;;10.60;72.80;;;;;;5029454;28;20523;-69
2021/04/15 13:41:27;;;;;;;3.40;1.90;;;10.60;73.60;;;;;;5037554;28;20462;-69
2021/04/15 13:44:33;;;;;;;3.47;2.50;;;10.60;74.20;;;;;;5025174;28;20482;-68
2021/04/15 13:46:59;;;;;;;2.77;1.90;;;10.70;74.70;;;;;;5043689;28;20445;-69
2021/04/15 13:49:37;;;;;;;2.30;2.10;;;10.70;74.50;;;;;;5026990;28;20414;-68
2021/04/15 13:52:26;;;;;;;2.87;1.63;;;10.70;74.80;;;;;;5045506;28;20180;-69
2021/04/15 13:54:54;;;;;;;1.33;1.03;;;10.80;74.30;;;;;;5045079;28;21527;-68
2021/04/15 13:57:26;;;;;;;2.00;1.80;;;10.60;71.90;;;;;;4995290;28;20470;-68
2021/04/15 13:59:57;;;;;;;3.60;1.53;;;10.60;72.40;;;;;;5020704;28;20485;-69